createdAt,value
2019-01-21T00:00:07.491Z,-3.96
2019-01-21T00:00:55.985Z,-3.92
2019-01-21T00:01:34.636Z,-3.98
2019-01-21T00:02:10.712Z,-3.97
2019-01-21T00:02:46.700Z,-4.04
2019-01-21T00:03:22.802Z,-4.03
2019-01-21T00:03:58.654Z,-4.05
2019-01-21T00:04:34.576Z,-4.06
2019-01-21T00:05:10.300Z,-4.09
2019-01-21T00:05:46.325Z,-4.06
2019-01-21T00:06:22.097Z,-4.08
2019-01-21T00:06:58.081Z,-4.04
2019-01-21T00:07:34.067Z,-4.04
2019-01-21T00:08:09.895Z,-4.07
2019-01-21T00:08:46.220Z,-4.06
2019-01-21T00:09:22.412Z,-4.11
2019-01-21T00:09:58.298Z,-4.10
2019-01-21T00:10:34.546Z,-4.07
2019-01-21T00:11:10.296Z,-4.03
2019-01-21T00:11:46.387Z,-4.07
2019-01-21T00:12:22.230Z,-4.05
2019-01-21T00:12:58.000Z,-4.03
2019-01-21T00:13:33.772Z,-3.97
2019-01-21T00:14:09.559Z,-4.06
2019-01-21T00:14:45.279Z,-4.08
2019-01-21T00:15:21.557Z,-4.08
2019-01-21T00:15:57.686Z,-4.06
2019-01-21T00:16:33.690Z,-4.11
2019-01-21T00:17:09.503Z,-4.11
2019-01-21T00:17:45.263Z,-4.08
2019-01-21T00:18:21.119Z,-4.10
2019-01-21T00:18:57.026Z,-4.06
2019-01-21T00:19:33.552Z,-4.06
2019-01-21T00:20:09.485Z,-4.10
2019-01-21T00:20:45.217Z,-4.07
2019-01-21T00:21:21.058Z,-4.03
2019-01-21T00:21:56.856Z,-4.07
2019-01-21T00:22:32.912Z,-4.15
2019-01-21T00:23:08.631Z,-4.08
2019-01-21T00:23:44.349Z,-4.09
2019-01-21T00:24:20.338Z,-4.11
2019-01-21T00:24:56.810Z,-4.08
2019-01-21T00:25:32.775Z,-4.08
2019-01-21T00:26:08.491Z,-4.07
2019-01-21T00:26:44.186Z,-4.09
2019-01-21T00:27:19.941Z,-4.10
2019-01-21T00:27:55.678Z,-4.11
2019-01-21T00:28:31.648Z,-4.12
2019-01-21T00:29:07.411Z,-4.18
2019-01-21T00:29:43.182Z,-4.16
2019-01-21T00:30:18.920Z,-4.13
2019-01-21T00:30:54.817Z,-4.15
2019-01-21T00:31:30.651Z,-4.17
2019-01-21T00:32:06.382Z,-4.15
2019-01-21T00:32:42.410Z,-4.11
2019-01-21T00:33:18.180Z,-4.13
2019-01-21T00:33:54.072Z,-4.04
2019-01-21T00:34:30.464Z,-4.07
2019-01-21T00:35:06.389Z,-4.07
2019-01-21T00:35:42.236Z,-4.07
2019-01-21T00:36:18.140Z,-4.05
2019-01-21T00:36:54.679Z,-4.08
2019-01-21T00:37:30.600Z,-4.08
2019-01-21T00:38:06.687Z,-4.10
2019-01-21T00:38:42.665Z,-4.08
2019-01-21T00:39:18.641Z,-4.09
2019-01-21T00:39:54.536Z,-4.07
2019-01-21T00:40:30.791Z,-4.06
2019-01-21T00:41:06.793Z,-4.02
2019-01-21T00:41:42.623Z,-4.03
2019-01-21T00:42:18.687Z,-3.95
2019-01-21T00:42:54.530Z,-3.97
2019-01-21T00:43:30.346Z,-4.00
2019-01-21T00:44:06.048Z,-4.02
2019-01-21T00:44:42.076Z,-4.01
2019-01-21T00:45:17.988Z,-4.01
2019-01-21T00:45:53.928Z,-4.08
2019-01-21T00:46:29.936Z,-4.07
2019-01-21T00:47:06.081Z,-4.05
2019-01-21T00:47:41.890Z,-4.11
2019-01-21T00:48:17.682Z,-4.10
2019-01-21T00:48:53.661Z,-4.11
2019-01-21T00:49:29.400Z,-4.07
2019-01-21T00:50:06.080Z,-4.02
2019-01-21T00:50:41.782Z,-4.08
2019-01-21T00:51:17.802Z,-4.10
2019-01-21T00:51:53.781Z,-4.03
2019-01-21T00:52:29.828Z,-4.05
2019-01-21T00:53:05.805Z,-4.01
2019-01-21T00:53:42.115Z,-4.01
2019-01-21T00:54:18.413Z,-4.01
2019-01-21T00:54:54.173Z,-4.06
2019-01-21T00:55:29.952Z,-4.07
2019-01-21T00:56:05.688Z,-4.06
2019-01-21T00:56:41.428Z,-4.02
2019-01-21T00:57:17.210Z,-4.06
2019-01-21T00:57:53.079Z,-4.08
2019-01-21T00:58:29.036Z,-4.05
2019-01-21T00:59:04.966Z,-4.08
2019-01-21T00:59:41.001Z,-4.11
2019-01-21T01:00:20.169Z,-4.11
2019-01-21T01:00:55.901Z,-4.00
2019-01-21T01:01:31.636Z,-4.11
2019-01-21T01:02:07.348Z,-4.12
2019-01-21T01:02:43.121Z,-4.13
2019-01-21T01:03:18.884Z,-4.16
2019-01-21T01:03:54.863Z,-4.15
2019-01-21T01:04:30.984Z,-4.08
2019-01-21T01:05:08.636Z,-4.05
2019-01-21T01:05:44.382Z,-4.05
2019-01-21T01:06:20.746Z,-4.11
2019-01-21T01:06:56.474Z,-4.14
2019-01-21T01:07:32.429Z,-4.07
2019-01-21T01:08:08.140Z,-4.08
2019-01-21T01:08:44.583Z,-4.12
2019-01-21T01:09:20.642Z,-4.13
2019-01-21T01:09:56.403Z,-4.17
2019-01-21T01:10:32.111Z,-4.16
2019-01-21T01:11:07.952Z,-4.16
2019-01-21T01:11:43.677Z,-4.07
2019-01-21T01:12:19.778Z,-4.07
2019-01-21T01:12:55.488Z,-4.17
2019-01-21T01:13:31.214Z,-4.16
2019-01-21T01:14:06.931Z,-4.17
2019-01-21T01:14:42.935Z,-4.21
2019-01-21T01:15:18.996Z,-4.21
2019-01-21T01:15:54.730Z,-4.19
2019-01-21T01:16:30.439Z,-4.17
2019-01-21T01:17:06.461Z,-4.23
2019-01-21T01:17:42.485Z,-4.22
2019-01-21T01:18:18.303Z,-4.15
2019-01-21T01:18:54.037Z,-4.19
2019-01-21T01:19:29.747Z,-4.23
2019-01-21T01:20:09.108Z,-4.21
2019-01-21T01:20:44.839Z,-4.19
2019-01-21T01:21:20.609Z,-4.18
2019-01-21T01:21:56.364Z,-4.21
2019-01-21T01:22:32.454Z,-4.20
2019-01-21T01:23:08.167Z,-4.27
2019-01-21T01:23:43.888Z,-4.28
2019-01-21T01:24:19.677Z,-4.30
2019-01-21T01:24:55.395Z,-4.30
2019-01-21T01:25:31.165Z,-4.26
2019-01-21T01:26:06.891Z,-4.28
2019-01-21T01:26:42.879Z,-4.29
2019-01-21T01:27:18.626Z,-4.31
2019-01-21T01:27:54.389Z,-4.35
2019-01-21T01:28:30.085Z,-4.35
2019-01-21T01:29:05.803Z,-4.38
2019-01-21T01:29:42.141Z,-4.32
2019-01-21T01:30:18.604Z,-4.32
2019-01-21T01:30:54.318Z,-4.29
2019-01-21T01:31:30.029Z,-4.27
2019-01-21T01:32:05.725Z,-4.33
2019-01-21T01:32:41.471Z,-4.34
2019-01-21T01:33:17.208Z,-4.24
2019-01-21T01:33:53.215Z,-4.10
2019-01-21T01:34:29.541Z,-4.02
2019-01-21T01:35:05.940Z,-4.14
2019-01-21T01:35:41.788Z,-4.26
2019-01-21T01:36:17.507Z,-4.35
2019-01-21T01:36:53.503Z,-4.37
2019-01-21T01:37:30.071Z,-4.40
2019-01-21T01:38:05.787Z,-4.45
2019-01-21T01:38:41.605Z,-4.44
2019-01-21T01:39:17.353Z,-4.39
2019-01-21T01:39:53.105Z,-4.41
2019-01-21T01:40:29.259Z,-4.42
2019-01-21T01:41:05.323Z,-4.42
2019-01-21T01:41:41.026Z,-4.45
2019-01-21T01:42:16.758Z,-4.46
2019-01-21T01:42:52.581Z,-4.40
2019-01-21T01:43:28.262Z,-4.40
2019-01-21T01:44:03.984Z,-4.37
2019-01-21T01:44:39.930Z,-4.43
2019-01-21T01:45:20.493Z,-4.43
2019-01-21T01:45:56.481Z,-4.37
2019-01-21T01:46:32.325Z,-4.37
2019-01-21T01:47:08.271Z,-4.38
2019-01-21T01:47:44.809Z,-4.40
2019-01-21T01:48:20.751Z,-4.40
2019-01-21T01:48:56.801Z,-4.43
2019-01-21T01:49:32.595Z,-4.40
2019-01-21T01:50:08.854Z,-4.38
2019-01-21T01:50:44.661Z,-4.40
2019-01-21T01:51:20.391Z,-4.33
2019-01-21T01:51:56.141Z,-4.37
2019-01-21T01:52:32.125Z,-4.40
2019-01-21T01:53:07.807Z,-4.27
2019-01-21T01:53:43.518Z,-4.27
2019-01-21T01:54:19.297Z,-4.33
2019-01-21T01:54:55.268Z,-4.38
2019-01-21T01:55:31.951Z,-4.39
2019-01-21T01:56:08.256Z,-4.39
2019-01-21T01:56:43.983Z,-4.41
2019-01-21T01:57:20.188Z,-4.41
2019-01-21T01:57:59.092Z,-4.44
2019-01-21T01:58:35.087Z,-4.45
2019-01-21T01:59:10.796Z,-4.44
2019-01-21T01:59:46.857Z,-4.46
2019-01-21T02:00:22.596Z,-4.46
2019-01-21T02:00:58.343Z,-4.47
2019-01-21T02:01:34.321Z,-4.44
2019-01-21T02:02:10.030Z,-4.47
2019-01-21T02:02:46.125Z,-4.49
2019-01-21T02:03:21.971Z,-4.49
2019-01-21T02:03:57.807Z,-4.42
2019-01-21T02:04:33.517Z,-4.44
2019-01-21T02:05:09.801Z,-4.44
2019-01-21T02:05:45.606Z,-4.41
2019-01-21T02:06:21.586Z,-4.35
2019-01-21T02:06:57.327Z,-4.38
2019-01-21T02:07:33.584Z,-4.42
2019-01-21T02:08:09.382Z,-4.47
2019-01-21T02:08:45.244Z,-4.42
2019-01-21T02:09:21.072Z,-4.41
2019-01-21T02:09:56.763Z,-4.41
2019-01-21T02:10:32.743Z,-4.45
2019-01-21T02:11:08.960Z,-4.47
2019-01-21T02:11:44.658Z,-4.52
2019-01-21T02:12:20.380Z,-4.54
2019-01-21T02:12:56.099Z,-4.45
2019-01-21T02:13:31.835Z,-4.46
2019-01-21T02:14:07.528Z,-4.44
2019-01-21T02:14:43.242Z,-4.48
2019-01-21T02:15:18.950Z,-4.45
2019-01-21T02:15:54.741Z,-4.51
2019-01-21T02:16:30.462Z,-4.47
2019-01-21T02:17:06.179Z,-4.53
2019-01-21T02:17:42.186Z,-4.47
2019-01-21T02:18:18.228Z,-4.53
2019-01-21T02:18:53.986Z,-4.48
2019-01-21T02:19:30.706Z,-4.55
2019-01-21T02:20:08.594Z,-4.52
2019-01-21T02:20:46.017Z,-4.57
2019-01-21T02:21:23.907Z,-4.57
2019-01-21T02:22:00.430Z,-4.55
2019-01-21T02:22:38.683Z,-4.56
2019-01-21T02:23:18.593Z,-4.51
2019-01-21T02:23:59.801Z,-4.54
2019-01-21T02:24:39.436Z,-4.53
2019-01-21T02:25:15.140Z,-4.57
2019-01-21T02:25:54.107Z,-4.57
2019-01-21T02:26:32.719Z,-4.56
2019-01-21T02:27:34.307Z,-4.62
2019-01-21T02:28:43.073Z,-4.61
2019-01-21T02:29:37.518Z,-4.65
2019-01-21T02:30:37.702Z,-4.66
2019-01-21T02:31:50.204Z,-4.64
2019-01-21T02:32:51.643Z,-4.63
2019-01-21T02:34:20.232Z,-4.72
2019-01-21T02:35:44.750Z,-4.71
2019-01-21T02:36:57.459Z,-4.67
2019-01-21T02:38:02.116Z,-4.69
2019-01-21T02:39:28.274Z,-4.69
2019-01-21T02:40:11.722Z,-4.59
2019-01-21T02:41:31.467Z,-4.67
2019-01-21T02:42:15.981Z,-4.71
2019-01-21T02:43:22.254Z,-4.73
2019-01-21T02:44:22.507Z,-4.69
2019-01-21T02:45:20.954Z,-4.78
2019-01-21T02:46:11.869Z,-4.78
2019-01-21T02:46:56.867Z,-4.86
2019-01-21T02:48:00.043Z,-4.80
2019-01-21T02:49:09.944Z,-4.82
2019-01-21T02:50:45.007Z,-4.80
2019-01-21T02:52:16.653Z,-5.16
2019-01-21T02:53:15.842Z,-4.84
2019-01-21T02:54:34.901Z,-4.88
2019-01-21T02:55:40.723Z,-4.88
2019-01-21T02:57:24.568Z,-4.84
2019-01-21T02:58:42.642Z,-4.86
2019-01-21T02:59:40.940Z,-4.78
2019-01-21T03:00:44.900Z,-4.84
2019-01-21T03:02:16.647Z,-4.76
2019-01-21T03:03:27.929Z,-4.76
2019-01-21T03:04:42.476Z,-4.78
2019-01-21T03:06:07.448Z,-4.82
2019-01-21T03:06:53.007Z,-4.80
2019-01-21T03:07:40.754Z,-4.90
2019-01-21T03:08:49.243Z,-4.86
2019-01-21T03:09:58.530Z,-4.88
2019-01-21T03:10:54.904Z,-4.82
2019-01-21T03:12:13.004Z,-4.82
2019-01-21T03:13:09.536Z,-4.86
2019-01-21T03:14:20.380Z,-4.85
2019-01-21T03:15:25.242Z,-4.89
2019-01-21T03:16:39.893Z,-4.87
2019-01-21T03:17:41.539Z,-4.89
2019-01-21T03:18:58.471Z,-4.83
2019-01-21T03:20:14.123Z,-4.78
2019-01-21T03:21:23.527Z,-4.79
2019-01-21T03:22:38.766Z,-4.75
2019-01-21T03:23:51.619Z,-4.82
2019-01-21T03:24:48.053Z,-4.80
2019-01-21T03:25:41.165Z,-4.83
2019-01-21T03:26:47.173Z,-4.82
2019-01-21T03:28:09.935Z,-4.78
2019-01-21T03:29:10.409Z,-4.78
2019-01-21T03:30:12.481Z,-4.83
2019-01-21T03:31:38.306Z,-4.80
2019-01-21T03:32:48.221Z,-4.73
2019-01-21T03:33:55.829Z,-4.63
2019-01-21T03:35:13.436Z,-4.60
2019-01-21T03:36:24.555Z,-4.80
2019-01-21T03:37:52.055Z,-4.84
2019-01-21T03:39:07.533Z,-4.89
2019-01-21T03:40:21.594Z,-4.87
2019-01-21T03:41:05.417Z,-4.87
2019-01-21T03:42:14.891Z,-4.89
2019-01-21T03:43:05.605Z,-4.90
2019-01-21T03:44:23.104Z,-4.91
2019-01-21T03:45:31.623Z,-4.92
2019-01-21T03:46:52.881Z,-4.91
2019-01-21T03:47:58.645Z,-4.87
2019-01-21T03:48:41.121Z,-4.88
2019-01-21T03:49:28.002Z,-4.91
2019-01-21T03:50:44.889Z,-4.92
2019-01-21T03:52:12.478Z,-4.96
2019-01-21T03:53:12.784Z,-5.01
2019-01-21T03:54:24.683Z,-4.99
2019-01-21T03:55:05.261Z,-5.07
2019-01-21T03:55:41.210Z,-5.02
2019-01-21T03:56:33.511Z,-5.06
2019-01-21T03:57:28.561Z,-5.01
2019-01-21T03:58:33.534Z,-5.10
2019-01-21T03:59:18.358Z,-5.12
2019-01-21T04:00:13.110Z,-5.05
2019-01-21T04:01:02.335Z,-5.11
2019-01-21T04:02:30.299Z,-5.17
2019-01-21T04:03:39.319Z,-5.16
2019-01-21T04:04:51.663Z,-5.16
2019-01-21T04:06:05.381Z,-5.14
2019-01-21T04:06:47.448Z,-5.22
2019-01-21T04:07:54.531Z,-5.20
2019-01-21T04:08:56.809Z,-5.20
2019-01-21T04:10:15.170Z,-5.21
2019-01-21T04:11:43.931Z,-5.21
2019-01-21T04:13:03.601Z,-5.14
2019-01-21T04:14:31.044Z,-5.14
2019-01-21T04:16:05.479Z,-5.17
2019-01-21T04:17:17.590Z,-5.17
2019-01-21T04:18:24.652Z,-5.12
2019-01-21T04:19:23.113Z,-5.08
2019-01-21T04:20:22.627Z,-5.13
2019-01-21T04:21:54.276Z,-5.10
2019-01-21T04:23:28.705Z,-5.11
2019-01-21T04:24:36.169Z,-5.09
2019-01-21T04:25:45.785Z,-5.20
2019-01-21T04:26:44.275Z,-5.20
2019-01-21T04:27:52.717Z,-5.18
2019-01-21T04:29:05.021Z,-5.21
2019-01-21T04:30:18.640Z,-5.24
2019-01-21T04:31:29.088Z,-5.30
2019-01-21T04:32:23.797Z,-5.12
2019-01-21T04:33:43.392Z,-5.23
2019-01-21T04:35:11.894Z,-5.32
2019-01-21T04:36:10.475Z,-5.33
2019-01-21T04:37:13.826Z,-5.46
2019-01-21T04:38:27.551Z,-5.44
2019-01-21T04:39:31.144Z,-5.53
2019-01-21T04:40:43.315Z,-5.53
2019-01-21T04:41:33.186Z,-5.54
2019-01-21T04:42:30.961Z,-5.54
2019-01-21T04:44:14.849Z,-5.55
2019-01-21T04:45:25.327Z,-5.53
2019-01-21T04:46:48.576Z,-5.44
2019-01-21T04:48:07.306Z,-5.42
2019-01-21T04:49:16.034Z,-5.45
2019-01-21T04:50:25.000Z,-5.48
2019-01-21T04:51:27.644Z,-5.42
2019-01-21T04:52:49.658Z,-5.41
2019-01-21T04:54:02.298Z,-5.46
2019-01-21T04:55:00.370Z,-5.42
2019-01-21T04:56:23.591Z,-5.44
2019-01-21T04:57:36.130Z,-5.48
2019-01-21T04:58:47.234Z,-5.53
2019-01-21T05:00:02.777Z,-5.55
2019-01-21T05:01:01.493Z,-5.58
2019-01-21T05:02:14.071Z,-5.55
2019-01-21T05:03:38.493Z,-5.47
2019-01-21T05:04:49.423Z,-5.57
2019-01-21T05:06:15.667Z,-5.58
2019-01-21T05:07:43.923Z,-5.60
2019-01-21T05:08:55.066Z,-5.56
2019-01-21T05:09:57.081Z,-5.58
2019-01-21T05:11:07.949Z,-5.60
2019-01-21T05:12:17.997Z,-5.64
2019-01-21T05:13:08.842Z,-5.66
2019-01-21T05:14:27.231Z,-5.68
2019-01-21T05:15:40.067Z,-5.69
2019-01-21T05:16:42.870Z,-5.59
2019-01-21T05:18:11.616Z,-5.64
2019-01-21T05:19:21.084Z,-5.68
2019-01-21T05:20:39.468Z,-5.72
2019-01-21T05:22:00.913Z,-5.70
2019-01-21T05:23:18.500Z,-5.65
2019-01-21T05:24:33.361Z,-5.64
2019-01-21T05:25:40.488Z,-5.68
2019-01-21T05:26:50.269Z,-5.62
2019-01-21T05:28:10.746Z,-5.64
2019-01-21T05:29:25.645Z,-5.67
2019-01-21T05:30:37.256Z,-5.71
2019-01-21T05:31:39.792Z,-5.75
2019-01-21T05:32:40.849Z,-5.79
2019-01-21T05:34:09.233Z,-5.73
2019-01-21T05:35:41.133Z,-5.75
2019-01-21T05:37:07.412Z,-5.74
2019-01-21T05:38:07.464Z,-5.73
2019-01-21T05:39:26.564Z,-5.67
2019-01-21T05:40:22.200Z,-5.69
2019-01-21T05:41:27.385Z,-5.68
2019-01-21T05:42:42.261Z,-5.67
2019-01-21T05:44:01.842Z,-5.69
2019-01-21T05:44:55.401Z,-5.65
2019-01-21T05:46:09.555Z,-5.65
2019-01-21T05:47:09.342Z,-5.66
2019-01-21T05:48:11.911Z,-5.63
2019-01-21T05:49:28.340Z,-5.63
2019-01-21T05:50:30.286Z,-5.59
2019-01-21T05:51:21.851Z,-5.61
2019-01-21T05:52:39.396Z,-5.60
2019-01-21T05:53:54.891Z,-5.62
2019-01-21T05:55:12.918Z,-5.63
2019-01-21T05:56:47.469Z,-5.70
2019-01-21T05:58:01.519Z,-5.69
2019-01-21T05:59:19.395Z,-5.64
2019-01-21T06:00:28.093Z,-5.71
2019-01-21T06:01:43.782Z,-5.60
2019-01-21T06:03:11.039Z,-5.69
2019-01-21T06:04:14.594Z,-5.66
2019-01-21T06:05:06.650Z,-5.68
2019-01-21T06:06:26.986Z,-5.68
2019-01-21T06:07:42.690Z,-5.65
2019-01-21T06:09:01.204Z,-5.72
2019-01-21T06:10:11.104Z,-5.71
2019-01-21T06:11:00.847Z,-5.75
2019-01-21T06:12:38.612Z,-5.77
2019-01-21T06:13:55.775Z,-5.75
2019-01-21T06:15:11.832Z,-5.87
2019-01-21T06:16:10.445Z,-5.85
2019-01-21T06:17:02.937Z,-5.76
2019-01-21T06:18:31.670Z,-5.74
2019-01-21T06:19:33.735Z,-5.78
2019-01-21T06:20:32.198Z,-5.80
2019-01-21T06:21:45.271Z,-5.81
2019-01-21T06:22:47.072Z,-5.81
2019-01-21T06:23:46.580Z,-5.85
2019-01-21T06:24:34.140Z,-5.81
2019-01-21T06:25:43.421Z,-5.84
2019-01-21T06:27:12.093Z,-5.79
2019-01-21T06:28:29.126Z,-5.81
2019-01-21T06:29:50.932Z,-5.78
2019-01-21T06:31:11.337Z,-5.80
2019-01-21T06:31:59.006Z,-5.75
2019-01-21T06:33:12.930Z,-5.74
2019-01-21T06:34:16.736Z,-5.74
2019-01-21T06:35:10.257Z,-5.71
2019-01-21T06:36:08.901Z,-5.74
2019-01-21T06:37:10.893Z,-5.73
2019-01-21T06:37:53.096Z,-5.72
2019-01-21T06:39:10.444Z,-5.98
2019-01-21T06:40:14.489Z,-5.65
2019-01-21T06:41:34.883Z,-5.65
2019-01-21T06:43:02.287Z,-5.78
2019-01-21T06:44:24.987Z,-5.84
2019-01-21T06:45:19.602Z,-5.84
2019-01-21T06:46:31.266Z,-5.88
2019-01-21T06:47:50.465Z,-5.91
2019-01-21T06:49:04.770Z,-5.92
2019-01-21T06:50:14.425Z,-5.86
2019-01-21T06:51:28.895Z,-5.88
2019-01-21T06:52:35.970Z,-5.88
2019-01-21T06:53:40.562Z,-5.82
2019-01-21T06:54:38.764Z,-5.88
2019-01-21T06:55:30.798Z,-5.79
2019-01-21T06:56:57.616Z,-5.74
2019-01-21T06:58:06.319Z,-5.79
2019-01-21T06:59:28.820Z,-5.81
2019-01-21T07:00:41.002Z,-5.75
2019-01-21T07:01:49.153Z,-5.64
2019-01-21T07:02:57.354Z,-5.64
2019-01-21T07:04:08.039Z,-5.66
2019-01-21T07:05:06.382Z,-5.67
2019-01-21T07:06:37.113Z,-5.70
2019-01-21T07:07:48.247Z,-5.64
2019-01-21T07:09:23.191Z,-5.70
2019-01-21T07:10:42.972Z,-5.70
2019-01-21T07:12:02.667Z,-5.72
2019-01-21T07:13:00.673Z,-5.80
2019-01-21T07:13:56.819Z,-5.86
2019-01-21T07:15:06.942Z,-5.59
2019-01-21T07:16:35.892Z,-5.62
2019-01-21T07:17:58.850Z,-5.67
2019-01-21T07:19:11.779Z,-5.85
2019-01-21T07:20:29.801Z,-5.82
2019-01-21T07:22:00.737Z,-5.72
2019-01-21T07:23:08.524Z,-5.69
2019-01-21T07:24:20.868Z,-5.60
2019-01-21T07:25:27.927Z,-5.71
2019-01-21T07:26:43.261Z,-5.66
2019-01-21T07:28:12.187Z,-5.66
2019-01-21T07:29:31.446Z,-5.64
2019-01-21T07:30:57.195Z,-5.71
2019-01-21T07:31:58.766Z,-5.60
2019-01-21T07:33:21.143Z,-5.55
2019-01-21T07:34:09.781Z,-5.39
2019-01-21T07:35:09.212Z,-5.53
2019-01-21T07:36:41.161Z,-5.49
2019-01-21T07:37:56.190Z,-5.52
2019-01-21T07:38:45.433Z,-5.31
2019-01-21T07:40:05.036Z,-5.48
2019-01-21T07:41:29.737Z,-5.52
2019-01-21T07:42:57.104Z,-5.52
2019-01-21T07:44:09.664Z,-5.56
2019-01-21T07:45:12.872Z,-5.55
2019-01-21T07:46:01.766Z,-5.49
2019-01-21T07:47:19.913Z,-5.46
2019-01-21T07:48:42.029Z,-5.43
2019-01-21T07:50:10.792Z,-5.42
2019-01-21T07:51:09.607Z,-5.37
2019-01-21T07:52:16.653Z,-5.33
2019-01-21T07:53:40.781Z,-5.30
2019-01-21T07:55:12.738Z,-5.29
2019-01-21T07:56:47.499Z,-5.30
2019-01-21T07:58:04.106Z,-5.31
2019-01-21T07:59:07.985Z,-5.20
2019-01-21T08:00:22.761Z,-5.26
2019-01-21T08:01:26.429Z,-5.22
2019-01-21T08:02:58.140Z,-5.23
2019-01-21T08:04:00.332Z,-5.19
2019-01-21T08:05:12.548Z,-5.18
2019-01-21T08:06:26.264Z,-5.17
2019-01-21T08:07:28.928Z,-5.07
2019-01-21T08:08:28.916Z,-5.09
2019-01-21T08:09:44.231Z,-5.05
2019-01-21T08:11:07.284Z,-4.95
2019-01-21T08:12:02.448Z,-4.96
2019-01-21T08:13:22.300Z,-4.98
2019-01-21T08:14:22.201Z,-4.94
2019-01-21T08:15:47.773Z,-4.97
2019-01-21T08:16:45.811Z,-4.97
2019-01-21T08:18:00.801Z,-4.95
2019-01-21T08:19:25.544Z,-4.93
2019-01-21T08:20:42.049Z,-4.91
2019-01-21T08:21:44.167Z,-4.91
2019-01-21T08:22:37.404Z,-4.86
2019-01-21T08:24:12.518Z,-4.89
2019-01-21T08:25:14.591Z,-4.83
2019-01-21T08:26:37.332Z,-4.90
2019-01-21T08:27:47.846Z,-4.80
2019-01-21T08:29:02.404Z,-4.88
2019-01-21T08:30:06.292Z,-4.81
2019-01-21T08:31:12.351Z,-4.70
2019-01-21T08:31:58.654Z,-4.71
2019-01-21T08:33:16.665Z,-4.68
2019-01-21T08:34:38.819Z,-4.71
2019-01-21T08:35:51.476Z,-4.70
2019-01-21T08:36:55.487Z,-4.71
2019-01-21T08:37:57.239Z,-4.69
2019-01-21T08:38:58.677Z,-4.67
2019-01-21T08:40:16.776Z,-4.63
2019-01-21T08:41:24.615Z,-4.61
2019-01-21T08:42:36.844Z,-4.49
2019-01-21T08:43:48.518Z,-4.49
2019-01-21T08:45:05.859Z,-4.49
2019-01-21T08:46:21.469Z,-4.56
2019-01-21T08:47:25.395Z,-4.58
2019-01-21T08:48:42.360Z,-4.48
2019-01-21T08:49:50.471Z,-4.46
2019-01-21T08:51:07.240Z,-4.41
2019-01-21T08:52:13.519Z,-4.33
2019-01-21T08:53:23.115Z,-4.30
2019-01-21T08:54:21.515Z,-4.36
2019-01-21T08:55:30.354Z,-4.31
2019-01-21T08:56:27.182Z,-4.31
2019-01-21T08:57:39.743Z,-4.17
2019-01-21T08:58:48.376Z,-4.22
2019-01-21T08:59:49.781Z,-4.13
2019-01-21T09:00:59.849Z,-4.14
2019-01-21T09:02:13.175Z,-4.11
2019-01-21T09:03:28.004Z,-4.08
2019-01-21T09:04:53.880Z,-4.00
2019-01-21T09:06:25.415Z,-3.98
2019-01-21T09:07:16.762Z,-3.93
2019-01-21T09:08:23.111Z,-3.88
2019-01-21T09:09:31.358Z,-3.89
2019-01-21T09:11:03.315Z,-3.90
2019-01-21T09:12:16.458Z,-3.83
2019-01-21T09:13:37.831Z,-3.68
2019-01-21T09:14:57.279Z,-3.75
2019-01-21T09:16:14.212Z,-3.68
2019-01-21T09:17:04.500Z,-3.63
2019-01-21T09:18:21.525Z,-3.66
2019-01-21T09:19:10.340Z,-3.58
2019-01-21T09:20:44.956Z,-3.58
2019-01-21T09:21:50.468Z,-3.53
2019-01-21T09:22:36.875Z,-3.50
2019-01-21T09:23:46.104Z,-3.43
2019-01-21T09:24:56.623Z,-3.37
2019-01-21T09:26:07.141Z,-3.38
2019-01-21T09:27:35.704Z,-3.36
2019-01-21T09:28:31.135Z,-3.23
2019-01-21T09:29:38.644Z,-3.25
2019-01-21T09:31:08.714Z,-3.17
2019-01-21T09:32:07.948Z,-3.25
2019-01-21T09:33:18.296Z,-3.22
2019-01-21T09:34:19.658Z,-3.23
2019-01-21T09:35:39.202Z,-3.24
2019-01-21T09:36:25.857Z,-3.21
2019-01-21T09:37:41.152Z,-3.18
2019-01-21T09:38:35.365Z,-3.13
2019-01-21T09:39:54.141Z,-3.18
2019-01-21T09:41:08.138Z,-3.14
2019-01-21T09:42:37.193Z,-3.08
2019-01-21T09:43:44.017Z,-3.02
2019-01-21T09:45:00.928Z,-2.94
2019-01-21T09:46:29.527Z,-2.88
2019-01-21T09:47:03.711Z,-2.94
2019-01-21T09:47:37.850Z,-2.80
2019-01-21T09:48:12.239Z,-2.84
2019-01-21T09:48:46.326Z,-2.89
2019-01-21T09:49:20.646Z,-2.89
2019-01-21T09:49:56.533Z,-2.88
2019-01-21T09:50:33.092Z,-2.90
2019-01-21T09:51:09.147Z,-2.68
2019-01-21T09:52:05.534Z,-2.70
2019-01-21T09:52:41.651Z,-2.67
2019-01-21T09:53:17.736Z,-2.62
2019-01-21T09:53:55.424Z,-2.67
2019-01-21T09:54:31.174Z,-2.59
2019-01-21T09:55:07.986Z,-2.68
2019-01-21T09:55:49.923Z,-2.51
2019-01-21T09:56:27.322Z,-2.45
2019-01-21T09:57:05.921Z,-2.47
2019-01-21T09:57:43.497Z,-2.46
2019-01-21T09:58:23.760Z,-2.43
2019-01-21T09:59:00.973Z,-2.42
2019-01-21T09:59:36.925Z,-2.29
2019-01-21T10:00:16.873Z,-2.31
2019-01-21T10:00:52.669Z,-2.16
2019-01-21T10:01:29.705Z,-2.18
2019-01-21T10:02:07.868Z,-2.17
2019-01-21T10:02:47.684Z,-2.17
2019-01-21T10:03:24.332Z,-2.18
2019-01-21T10:04:00.631Z,-2.20
2019-01-21T10:04:40.142Z,-2.16
2019-01-21T10:05:17.593Z,-2.19
2019-01-21T10:05:57.352Z,-2.21
2019-01-21T10:06:50.530Z,-2.20
2019-01-21T10:07:48.016Z,-2.18
2019-01-21T10:08:37.151Z,-2.16
2019-01-21T10:09:31.940Z,-2.16
2019-01-21T10:10:52.393Z,-2.14
2019-01-21T10:12:17.181Z,-2.11
2019-01-21T10:13:39.844Z,-2.08
2019-01-21T10:15:02.185Z,-1.98
2019-01-21T10:15:45.107Z,-1.95
2019-01-21T10:16:46.920Z,-1.89
2019-01-21T10:17:47.972Z,-1.85
2019-01-21T10:18:52.874Z,-1.81
2019-01-21T10:20:15.412Z,-1.73
2019-01-21T10:21:15.442Z,-1.65
2019-01-21T10:22:20.264Z,-1.81
2019-01-21T10:23:21.998Z,-1.76
2019-01-21T10:24:21.917Z,-1.69
2019-01-21T10:25:20.717Z,-1.58
2019-01-21T10:26:40.703Z,-1.59
2019-01-21T10:27:51.657Z,-1.49
2019-01-21T10:29:11.614Z,-1.54
2019-01-21T10:30:04.107Z,-1.36
2019-01-21T10:30:56.760Z,-1.28
2019-01-21T10:32:09.502Z,-1.19
2019-01-21T10:33:20.485Z,-1.24
2019-01-21T10:34:54.828Z,-1.28
2019-01-21T10:35:58.339Z,-1.14
2019-01-21T10:37:09.660Z,-1.26
2019-01-21T10:38:26.644Z,-1.32
2019-01-21T10:39:52.207Z,-1.23
2019-01-21T10:41:01.880Z,-1.00
2019-01-21T10:41:53.993Z,-1.02
2019-01-21T10:42:57.021Z,-0.98
2019-01-21T10:44:01.818Z,-0.93
2019-01-21T10:44:56.627Z,-0.91
2019-01-21T10:46:13.450Z,-0.92
2019-01-21T10:47:31.898Z,-0.66
2019-01-21T10:48:33.638Z,-0.62
2019-01-21T10:50:14.209Z,-0.67
2019-01-21T10:51:26.963Z,-0.53
2019-01-21T10:52:53.022Z,-0.49
2019-01-21T10:53:48.072Z,-0.55
2019-01-21T10:55:06.553Z,-0.32
2019-01-21T10:55:54.302Z,-0.24
2019-01-21T10:56:41.535Z,-0.04
2019-01-21T10:57:31.664Z,-0.07
2019-01-21T10:58:47.005Z,0.06
2019-01-21T11:00:02.154Z,0.09
2019-01-21T11:01:18.624Z,0.18
2019-01-21T11:02:27.868Z,0.35
2019-01-21T11:03:26.106Z,0.38
2019-01-21T11:04:43.016Z,0.57
2019-01-21T11:05:40.490Z,0.66
2019-01-21T11:06:49.705Z,0.86
2019-01-21T11:07:41.306Z,1.02
2019-01-21T11:09:12.329Z,1.66
2019-01-21T11:10:00.482Z,2.49
2019-01-21T11:11:15.529Z,3.97
2019-01-21T11:12:15.429Z,4.73
2019-01-21T11:13:22.967Z,5.19
2019-01-21T11:14:28.445Z,5.33
2019-01-21T11:15:28.145Z,5.73
2019-01-21T11:16:19.341Z,5.75
2019-01-21T11:17:38.990Z,6.42
2019-01-21T11:18:37.693Z,6.66
2019-01-21T11:19:43.851Z,7.64
2019-01-21T11:20:44.955Z,8.45
2019-01-21T11:21:45.338Z,8.77
2019-01-21T11:22:32.487Z,10.31
2019-01-21T11:24:07.106Z,10.03
2019-01-21T11:25:11.662Z,10.03
2019-01-21T11:26:24.108Z,11.35
2019-01-21T11:27:10.800Z,10.67
2019-01-21T11:28:28.933Z,10.67
2019-01-21T11:29:27.062Z,10.19
2019-01-21T11:31:01.905Z,9.22
2019-01-21T11:31:59.492Z,9.99
2019-01-21T11:33:28.434Z,9.85
2019-01-21T11:34:36.030Z,10.25
2019-01-21T11:35:59.971Z,9.69
2019-01-21T11:37:28.668Z,10.56
2019-01-21T11:38:25.574Z,10.40
2019-01-21T11:39:33.964Z,10.26
2019-01-21T11:40:21.429Z,10.04
2019-01-21T11:41:30.808Z,9.19
2019-01-21T11:42:20.852Z,9.16
2019-01-21T11:43:49.412Z,8.53
2019-01-21T11:45:00.287Z,8.56
2019-01-21T11:46:15.859Z,8.92
2019-01-21T11:47:19.034Z,9.26
2019-01-21T11:48:30.792Z,9.76
2019-01-21T11:49:47.043Z,10.19
2019-01-21T11:50:32.379Z,10.20
2019-01-21T11:51:35.057Z,9.11
2019-01-21T11:52:38.150Z,9.33
2019-01-21T11:53:45.301Z,9.11
2019-01-21T11:54:36.875Z,9.36
2019-01-21T11:55:55.978Z,8.44
2019-01-21T11:56:58.779Z,8.13
2019-01-21T11:58:20.920Z,8.13
2019-01-21T11:59:32.479Z,8.40
2019-01-21T12:00:45.391Z,8.49
2019-01-21T12:01:52.381Z,8.52
2019-01-21T12:03:16.421Z,9.42
2019-01-21T12:04:01.457Z,9.26
2019-01-21T12:05:20.824Z,8.85
2019-01-21T12:06:11.177Z,8.85
2019-01-21T12:07:00.646Z,8.71
2019-01-21T12:08:07.860Z,8.80
2019-01-21T12:08:59.322Z,8.69
2019-01-21T12:09:51.998Z,8.84
2019-01-21T12:11:11.626Z,9.14
2019-01-21T12:12:14.921Z,9.26
2019-01-21T12:13:26.922Z,8.78
2019-01-21T12:14:25.339Z,8.78
2019-01-21T12:15:35.204Z,9.07
2019-01-21T12:16:52.997Z,9.22
2019-01-21T12:17:59.802Z,9.65
2019-01-21T12:19:08.960Z,9.71
2019-01-21T12:20:33.225Z,9.22
2019-01-21T12:21:55.529Z,8.76
2019-01-21T12:23:35.779Z,9.42
2019-01-21T12:24:41.213Z,9.39
2019-01-21T12:25:28.957Z,9.39
2019-01-21T12:26:54.344Z,9.86
2019-01-21T12:28:10.983Z,9.86